createdAt,value
2017-08-23T00:00:35.229Z,51.97
2017-08-23T00:01:35.210Z,51.87
2017-08-23T00:02:35.186Z,51.68
2017-08-23T00:03:35.165Z,51.87
2017-08-23T00:04:35.144Z,51.97
2017-08-23T00:05:35.118Z,51.68
2017-08-23T00:06:35.096Z,51.77
2017-08-23T00:07:35.074Z,51.97
2017-08-23T00:08:35.052Z,51.87
2017-08-23T00:09:35.031Z,51.87
2017-08-23T00:10:35.008Z,51.97
2017-08-23T00:11:34.987Z,51.87
2017-08-23T00:12:34.967Z,51.87
2017-08-23T00:13:34.943Z,52.06
2017-08-23T00:14:34.921Z,51.87
2017-08-23T00:15:34.901Z,51.77
2017-08-23T00:16:34.879Z,51.77
2017-08-23T00:17:34.858Z,51.97
2017-08-23T00:18:34.832Z,51.77
2017-08-23T00:19:34.813Z,51.77
2017-08-23T00:20:34.789Z,51.80
2017-08-23T00:21:34.771Z,51.68
2017-08-23T00:22:34.744Z,51.68
2017-08-23T00:23:34.724Z,51.77
2017-08-23T00:24:34.703Z,51.87
2017-08-23T00:25:34.679Z,51.97
2017-08-23T00:26:34.656Z,51.87
2017-08-23T00:27:34.635Z,51.80
2017-08-23T00:28:34.616Z,51.87
2017-08-23T00:29:34.591Z,51.77
2017-08-23T00:30:34.571Z,51.77
2017-08-23T00:31:34.549Z,51.87
2017-08-23T00:32:34.525Z,51.77
2017-08-23T00:33:34.507Z,51.77
2017-08-23T00:34:34.480Z,51.97
2017-08-23T00:35:34.461Z,51.87
2017-08-23T00:36:34.440Z,51.77
2017-08-23T00:37:34.415Z,51.87
2017-08-23T00:38:34.394Z,51.77
2017-08-23T00:39:34.374Z,51.77
2017-08-23T00:40:34.349Z,52.35
2017-08-23T00:41:34.335Z,51.97
2017-08-23T00:42:34.307Z,51.68
2017-08-23T00:43:34.285Z,51.97
2017-08-23T00:44:34.265Z,51.97
2017-08-23T00:45:34.242Z,51.97
2017-08-23T00:46:34.220Z,52.55
2017-08-23T00:47:34.195Z,51.87
2017-08-23T00:48:34.174Z,51.97
2017-08-23T00:49:34.151Z,52.06
2017-08-23T00:50:34.129Z,52.06
2017-08-23T00:51:34.110Z,51.77
2017-08-23T00:52:34.085Z,52.06
2017-08-23T00:53:34.067Z,52.06
2017-08-23T00:54:34.041Z,52.06
2017-08-23T00:55:34.018Z,52.06
2017-08-23T00:56:33.996Z,52.35
2017-08-23T00:57:33.975Z,51.97
2017-08-23T00:58:33.954Z,51.97
2017-08-23T00:59:33.933Z,51.97
2017-08-23T01:00:33.909Z,52.06
2017-08-23T01:01:33.890Z,51.97
2017-08-23T01:02:33.868Z,52.45
2017-08-23T01:03:33.844Z,52.16
2017-08-23T01:04:33.824Z,52.16
2017-08-23T01:05:33.799Z,52.06
2017-08-23T01:06:33.779Z,52.16
2017-08-23T01:07:33.758Z,52.06
2017-08-23T01:08:33.736Z,51.97
2017-08-23T01:09:33.715Z,51.97
2017-08-23T01:10:33.692Z,51.97
2017-08-23T01:11:33.667Z,52.16
2017-08-23T01:12:33.649Z,52.06
2017-08-23T01:13:33.631Z,52.16
2017-08-23T01:14:33.601Z,52.16
2017-08-23T01:15:33.585Z,51.97
2017-08-23T01:16:33.557Z,52.06
2017-08-23T01:17:33.541Z,52.16
2017-08-23T01:18:33.516Z,51.87
2017-08-23T01:19:33.491Z,51.97
2017-08-23T01:20:33.469Z,51.97
2017-08-23T01:21:33.447Z,52.06
2017-08-23T01:22:33.425Z,51.97
2017-08-23T01:23:33.403Z,52.06
2017-08-23T01:24:33.386Z,52.35
2017-08-23T01:25:33.365Z,52.16
2017-08-23T01:26:33.336Z,51.77
2017-08-23T01:27:33.319Z,51.87
2017-08-23T01:28:33.291Z,51.97
2017-08-23T01:29:33.277Z,51.68
2017-08-23T01:30:33.248Z,51.77
2017-08-23T01:31:33.225Z,52.06
2017-08-23T01:32:33.207Z,51.89
2017-08-23T01:33:33.187Z,51.97
2017-08-23T01:34:33.163Z,51.87
2017-08-23T01:35:33.141Z,51.87
2017-08-23T01:36:33.124Z,51.97
2017-08-23T01:37:33.098Z,51.77
2017-08-23T01:38:33.072Z,51.97
2017-08-23T01:39:33.052Z,51.97
2017-08-23T01:40:33.028Z,51.87
2017-08-23T01:41:33.010Z,51.87
2017-08-23T01:42:32.988Z,51.68
2017-08-23T01:43:32.965Z,52.16
2017-08-23T01:44:32.945Z,51.87
2017-08-23T01:45:32.922Z,51.87
2017-08-23T01:46:32.901Z,52.06
2017-08-23T01:47:32.877Z,52.06
2017-08-23T01:48:32.855Z,51.97
2017-08-23T01:49:32.835Z,52.06
2017-08-23T01:50:32.810Z,52.06
2017-08-23T01:51:32.788Z,52.45
2017-08-23T01:52:32.765Z,52.06
2017-08-23T01:53:32.748Z,51.87
2017-08-23T01:54:32.720Z,51.77
2017-08-23T01:55:32.699Z,51.68
2017-08-23T01:56:32.681Z,51.97
2017-08-23T01:57:32.659Z,52.06
2017-08-23T01:58:32.633Z,51.97
2017-08-23T01:59:32.613Z,51.87
2017-08-23T02:00:32.593Z,52.55
2017-08-23T02:01:32.570Z,51.87
2017-08-23T02:02:32.546Z,51.97
2017-08-23T02:03:32.525Z,51.77
2017-08-23T02:04:32.504Z,52.06
2017-08-23T02:05:32.482Z,52.06
2017-08-23T02:06:32.462Z,51.97
2017-08-23T02:07:32.439Z,51.87
2017-08-23T02:08:32.416Z,52.06
2017-08-23T02:09:32.394Z,52.06
2017-08-23T02:10:32.370Z,51.97
2017-08-23T02:11:32.348Z,52.06
2017-08-23T02:12:32.330Z,51.97
2017-08-23T02:13:32.306Z,52.06
2017-08-23T02:14:32.282Z,52.25
2017-08-23T02:15:32.261Z,52.16
2017-08-23T02:16:32.238Z,51.97
2017-08-23T02:17:32.217Z,52.06
2017-08-23T02:18:32.194Z,51.77
2017-08-23T02:19:32.173Z,51.77
2017-08-23T02:20:32.154Z,51.77
2017-08-23T02:21:32.133Z,51.87
2017-08-23T02:22:32.109Z,51.77
2017-08-23T02:23:32.093Z,51.97
2017-08-23T02:24:32.066Z,51.97
2017-08-23T02:25:32.040Z,51.87
2017-08-23T02:26:32.018Z,52.06
2017-08-23T02:27:31.998Z,51.68
2017-08-23T02:28:31.978Z,51.97
2017-08-23T02:29:31.964Z,51.77
2017-08-23T02:30:31.930Z,52.06
2017-08-23T02:31:31.907Z,51.97
2017-08-23T02:32:31.887Z,52.06
2017-08-23T02:33:31.865Z,52.06
2017-08-23T02:34:31.844Z,51.68
2017-08-23T02:35:31.824Z,51.97
2017-08-23T02:36:31.803Z,51.87
2017-08-23T02:37:31.778Z,51.97
2017-08-23T02:38:31.756Z,52.06
2017-08-23T02:39:31.736Z,51.97
2017-08-23T02:40:31.711Z,51.87
2017-08-23T02:41:31.690Z,51.87
2017-08-23T02:42:31.665Z,51.77
2017-08-23T02:43:31.648Z,51.87
2017-08-23T02:44:31.625Z,51.87
2017-08-23T02:45:31.602Z,51.77
2017-08-23T02:46:31.578Z,51.97
2017-08-23T02:47:31.559Z,51.87
2017-08-23T02:48:31.540Z,52.06
2017-08-23T02:49:31.516Z,51.97
2017-08-23T02:50:31.492Z,51.97
2017-08-23T02:51:31.473Z,51.97
2017-08-23T02:52:31.452Z,51.97
2017-08-23T02:53:31.426Z,51.87
2017-08-23T02:54:31.409Z,51.77
2017-08-23T02:55:31.386Z,51.58
2017-08-23T02:56:31.360Z,51.77
2017-08-23T02:57:31.339Z,51.77
2017-08-23T02:58:31.316Z,51.68
2017-08-23T02:59:31.295Z,51.58
2017-08-23T03:00:31.273Z,51.87
2017-08-23T03:01:31.252Z,51.87
2017-08-23T03:02:31.229Z,51.97
2017-08-23T03:03:31.208Z,51.97
2017-08-23T03:04:31.186Z,51.97
2017-08-23T03:05:31.164Z,51.77
2017-08-23T03:06:31.138Z,51.87
2017-08-23T03:07:31.121Z,51.77
2017-08-23T03:08:31.099Z,51.87
2017-08-23T03:09:31.076Z,51.87
2017-08-23T03:10:31.053Z,51.87
2017-08-23T03:11:31.030Z,51.97
2017-08-23T03:12:31.012Z,52.06
2017-08-23T03:13:30.990Z,52.09
2017-08-23T03:14:30.965Z,52.16
2017-08-23T03:15:30.941Z,52.06
2017-08-23T03:16:30.919Z,51.89
2017-08-23T03:17:30.898Z,51.70
2017-08-23T03:18:30.880Z,51.89
2017-08-23T03:19:30.854Z,52.09
2017-08-23T03:20:30.832Z,52.37
2017-08-23T03:21:30.814Z,51.99
2017-08-23T03:22:30.810Z,52.06
2017-08-23T03:23:30.765Z,51.89
2017-08-23T03:24:30.746Z,52.09
2017-08-23T03:25:30.724Z,51.80
2017-08-23T03:26:30.699Z,51.87
2017-08-23T03:27:30.680Z,51.99
2017-08-23T03:28:30.660Z,51.70
2017-08-23T03:29:30.663Z,51.80
2017-08-23T03:30:30.614Z,52.09
2017-08-23T03:31:30.591Z,51.77
2017-08-23T03:32:30.570Z,51.89
2017-08-23T03:33:30.582Z,51.99
2017-08-23T03:34:30.525Z,51.87
2017-08-23T03:35:30.506Z,51.87
2017-08-23T03:36:30.483Z,51.80
2017-08-23T03:37:30.461Z,51.39
2017-08-23T03:38:30.441Z,51.87
2017-08-23T03:39:30.419Z,51.80
2017-08-23T03:40:30.393Z,51.61
2017-08-23T03:41:30.373Z,51.70
2017-08-23T03:42:30.354Z,51.70
2017-08-23T03:43:30.330Z,51.77
2017-08-23T03:44:30.308Z,51.99
2017-08-23T03:45:30.284Z,52.45
2017-08-23T03:46:30.265Z,51.99
2017-08-23T03:47:30.244Z,51.89
2017-08-23T03:48:30.222Z,51.89
2017-08-23T03:49:30.197Z,51.89
2017-08-23T03:50:30.185Z,51.70
2017-08-23T03:51:30.157Z,51.89
2017-08-23T03:52:30.134Z,51.80
2017-08-23T03:53:30.112Z,51.80
2017-08-23T03:54:30.086Z,51.70
2017-08-23T03:55:30.069Z,51.89
2017-08-23T03:56:30.041Z,51.80
2017-08-23T03:57:30.020Z,51.99
2017-08-23T03:58:29.999Z,51.80
2017-08-23T03:59:29.976Z,51.89
2017-08-23T04:00:29.958Z,52.09
2017-08-23T04:01:29.933Z,51.99
2017-08-23T04:02:29.915Z,52.28
2017-08-23T04:03:29.889Z,52.28
2017-08-23T04:04:29.867Z,52.37
2017-08-23T04:05:29.853Z,52.28
2017-08-23T04:06:29.829Z,51.99
2017-08-23T04:07:29.807Z,51.70
2017-08-23T04:08:29.778Z,51.89
2017-08-23T04:09:29.760Z,51.89
2017-08-23T04:10:29.735Z,51.87
2017-08-23T04:11:29.719Z,51.80
2017-08-23T04:12:29.693Z,51.87
2017-08-23T04:13:29.671Z,51.99
2017-08-23T04:14:29.648Z,52.25
2017-08-23T04:15:29.626Z,51.99
2017-08-23T04:16:29.606Z,52.06
2017-08-23T04:17:29.586Z,51.99
2017-08-23T04:18:29.559Z,51.77
2017-08-23T04:19:29.540Z,51.99
2017-08-23T04:20:29.521Z,52.16
2017-08-23T04:21:29.495Z,51.97
2017-08-23T04:22:29.473Z,52.09
2017-08-23T04:23:29.449Z,52.06
2017-08-23T04:24:29.432Z,51.97
2017-08-23T04:25:29.409Z,52.06
2017-08-23T04:26:29.384Z,51.97
2017-08-23T04:27:29.363Z,52.25
2017-08-23T04:28:29.340Z,52.06
2017-08-23T04:29:29.320Z,52.16
2017-08-23T04:30:29.295Z,52.37
2017-08-23T04:31:29.274Z,52.55
2017-08-23T04:32:29.257Z,52.06
2017-08-23T04:33:29.230Z,52.25
2017-08-23T04:34:29.209Z,51.87
2017-08-23T04:35:29.191Z,52.45
2017-08-23T04:36:29.163Z,52.19
2017-08-23T04:37:29.145Z,52.37
2017-08-23T04:38:29.126Z,52.45
2017-08-23T04:39:29.100Z,52.06
2017-08-23T04:40:29.083Z,52.55
2017-08-23T04:41:29.057Z,52.06
2017-08-23T04:42:29.035Z,52.25
2017-08-23T04:43:29.010Z,52.45
2017-08-23T04:44:28.991Z,51.99
2017-08-23T04:45:28.973Z,52.35
2017-08-23T04:46:28.947Z,52.45
2017-08-23T04:47:28.927Z,52.06
2017-08-23T04:48:28.904Z,51.97
2017-08-23T04:49:28.883Z,51.87
2017-08-23T04:50:28.859Z,52.16
2017-08-23T04:51:28.834Z,51.97
2017-08-23T04:52:28.834Z,52.45
2017-08-23T04:53:28.794Z,51.97
2017-08-23T04:54:28.773Z,51.97
2017-08-23T04:55:28.751Z,51.97
2017-08-23T04:56:28.730Z,51.97
2017-08-23T04:57:28.706Z,51.97
2017-08-23T04:58:28.685Z,51.97
2017-08-23T04:59:28.660Z,51.87
2017-08-23T05:00:28.642Z,51.87
2017-08-23T05:01:28.618Z,51.97
2017-08-23T05:02:28.598Z,51.80
2017-08-23T05:03:28.575Z,52.19
2017-08-23T05:04:28.554Z,51.97
2017-08-23T05:05:28.528Z,51.97
2017-08-23T05:06:28.505Z,52.06
2017-08-23T05:07:28.486Z,51.68
2017-08-23T05:08:28.468Z,51.97
2017-08-23T05:09:28.445Z,51.97
2017-08-23T05:10:28.420Z,51.68
2017-08-23T05:11:28.396Z,51.97
2017-08-23T05:12:28.374Z,51.97
2017-08-23T05:13:28.352Z,51.68
2017-08-23T05:14:28.330Z,51.89
2017-08-23T05:15:28.310Z,51.77
2017-08-23T05:16:28.289Z,51.77
2017-08-23T05:17:28.265Z,51.87
2017-08-23T05:18:28.248Z,51.97
2017-08-23T05:19:28.223Z,51.87
2017-08-23T05:20:28.204Z,51.87
2017-08-23T05:21:28.180Z,51.97
2017-08-23T05:22:28.156Z,51.87
2017-08-23T05:23:28.137Z,52.06
2017-08-23T05:24:28.113Z,52.06
2017-08-23T05:25:28.094Z,51.87
2017-08-23T05:26:28.073Z,51.89
2017-08-23T05:27:28.045Z,52.06
2017-08-23T05:28:28.024Z,51.87
2017-08-23T05:29:28.003Z,52.09
2017-08-23T05:30:27.980Z,51.97
2017-08-23T05:31:27.960Z,51.97
2017-08-23T05:32:27.938Z,51.70
2017-08-23T05:33:27.918Z,51.99
2017-08-23T05:34:27.897Z,52.06
2017-08-23T05:35:27.872Z,52.47
2017-08-23T05:36:27.850Z,51.99
2017-08-23T05:37:27.831Z,52.35
2017-08-23T05:38:27.807Z,52.19
2017-08-23T05:39:27.791Z,52.37
2017-08-23T05:40:27.767Z,52.06
2017-08-23T05:41:27.740Z,51.87
2017-08-23T05:42:27.716Z,52.37
2017-08-23T05:43:27.697Z,51.77
2017-08-23T05:44:27.676Z,52.06
2017-08-23T05:45:27.652Z,51.89
2017-08-23T05:46:27.630Z,51.99
2017-08-23T05:47:27.610Z,51.70
2017-08-23T05:48:27.587Z,51.99
2017-08-23T05:49:27.567Z,51.80
2017-08-23T05:50:27.538Z,51.87
2017-08-23T05:51:27.527Z,51.87
2017-08-23T05:52:27.500Z,51.89
2017-08-23T05:53:27.477Z,51.89
2017-08-23T05:54:27.451Z,51.80
2017-08-23T05:55:27.432Z,51.68
2017-08-23T05:56:27.413Z,51.89
2017-08-23T05:57:27.390Z,51.89
2017-08-23T05:58:27.372Z,51.80
2017-08-23T05:59:27.342Z,51.70
2017-08-23T06:00:27.321Z,51.51
2017-08-23T06:01:27.298Z,51.68
2017-08-23T06:02:27.281Z,51.68
2017-08-23T06:03:27.255Z,51.80
2017-08-23T06:04:27.232Z,51.77
2017-08-23T06:05:27.214Z,50.90
2017-08-23T06:06:27.192Z,51.20
2017-08-23T06:07:27.166Z,51.58
2017-08-23T06:08:27.148Z,51.48
2017-08-23T06:09:27.123Z,51.58
2017-08-23T06:10:27.105Z,51.68
2017-08-23T06:11:27.086Z,51.10
2017-08-23T06:12:27.061Z,51.29
2017-08-23T06:13:27.037Z,51.00
2017-08-23T06:14:27.011Z,50.90
2017-08-23T06:15:26.991Z,51.32
2017-08-23T06:16:26.971Z,50.90
2017-08-23T06:17:26.949Z,50.84
2017-08-23T06:18:26.930Z,51.12
2017-08-23T06:19:26.905Z,50.74
2017-08-23T06:20:26.883Z,51.22
2017-08-23T06:21:26.861Z,51.03
2017-08-23T06:22:26.838Z,51.03
2017-08-23T06:23:26.818Z,50.74
2017-08-23T06:24:26.795Z,51.22
2017-08-23T06:25:26.772Z,51.22
2017-08-23T06:26:26.750Z,51.89
2017-08-23T06:27:26.731Z,51.89
2017-08-23T06:28:26.709Z,51.70
2017-08-23T06:29:26.686Z,51.99
2017-08-23T06:30:26.669Z,51.70
2017-08-23T06:31:26.639Z,51.61
2017-08-23T06:32:26.620Z,52.09
2017-08-23T06:33:26.595Z,51.99
2017-08-23T06:34:26.575Z,52.19
2017-08-23T06:35:26.556Z,52.37
2017-08-23T06:36:26.534Z,51.99
2017-08-23T06:37:26.512Z,52.37
2017-08-23T06:38:26.490Z,52.37
2017-08-23T06:39:26.464Z,52.19
2017-08-23T06:40:59.650Z,52.28
2017-08-23T06:41:26.421Z,52.19
2017-08-23T06:42:26.400Z,52.37
2017-08-23T06:43:26.377Z,52.37
2017-08-23T06:44:26.355Z,52.09
2017-08-23T06:45:26.338Z,52.37
2017-08-23T06:46:26.315Z,52.37
2017-08-23T06:47:26.290Z,52.57
2017-08-23T06:48:26.268Z,52.67
2017-08-23T06:49:26.250Z,52.37
2017-08-23T06:50:26.226Z,52.37
2017-08-23T06:51:26.206Z,52.19
2017-08-23T06:52:26.180Z,52.28
2017-08-23T06:53:26.165Z,52.37
2017-08-23T06:54:26.140Z,52.37
2017-08-23T06:55:26.119Z,52.37
2017-08-23T06:56:26.092Z,51.99
2017-08-23T06:57:26.079Z,52.28
2017-08-23T06:58:26.051Z,52.28
2017-08-23T06:59:26.031Z,52.28
2017-08-23T07:00:26.010Z,52.09
2017-08-23T07:01:25.985Z,52.19
2017-08-23T07:02:25.966Z,52.19
2017-08-23T07:03:25.945Z,52.47
2017-08-23T07:04:25.923Z,51.99
2017-08-23T07:05:25.898Z,52.37
2017-08-23T07:06:25.876Z,52.19
2017-08-23T07:07:25.857Z,52.19
2017-08-23T07:08:25.831Z,52.37
2017-08-23T07:09:25.813Z,52.47
2017-08-23T07:10:25.788Z,52.95
2017-08-23T07:11:25.766Z,52.28
2017-08-23T07:12:25.746Z,52.37
2017-08-23T07:13:25.722Z,51.99
2017-08-23T07:14:25.703Z,52.47
2017-08-23T07:15:25.679Z,52.37
2017-08-23T07:16:25.657Z,52.19
2017-08-23T07:17:25.637Z,52.28
2017-08-23T07:18:25.611Z,52.37
2017-08-23T07:19:25.594Z,52.19
2017-08-23T07:20:25.571Z,52.37
2017-08-23T07:21:25.550Z,52.37
2017-08-23T07:22:25.540Z,52.67
2017-08-23T07:23:25.504Z,52.37
2017-08-23T07:24:25.484Z,52.28
2017-08-23T07:25:25.464Z,52.28
2017-08-23T07:26:25.438Z,52.37
2017-08-23T07:27:25.415Z,52.28
2017-08-23T07:28:25.394Z,52.28
2017-08-23T07:29:25.378Z,52.37
2017-08-23T07:30:25.350Z,52.19
2017-08-23T07:31:25.332Z,52.09
2017-08-23T07:32:25.307Z,52.09
2017-08-23T07:33:25.285Z,52.47
2017-08-23T07:34:25.264Z,52.09
2017-08-23T07:35:25.250Z,51.80
2017-08-23T07:36:25.221Z,51.89
2017-08-23T07:37:25.199Z,51.99
2017-08-23T07:38:25.182Z,51.92
2017-08-23T07:39:25.156Z,51.82
2017-08-23T07:40:25.135Z,51.92
2017-08-23T07:41:25.112Z,51.92
2017-08-23T07:42:25.094Z,51.82
2017-08-23T07:43:25.073Z,52.11
2017-08-23T07:44:25.048Z,52.11
2017-08-23T07:45:25.029Z,51.92
2017-08-23T07:46:25.005Z,51.73
2017-08-23T07:47:24.987Z,52.01
2017-08-23T07:48:24.961Z,52.01
2017-08-23T07:49:24.941Z,52.01
2017-08-23T07:50:24.921Z,52.01
2017-08-23T07:51:24.901Z,51.92
2017-08-23T07:52:24.880Z,52.01
2017-08-23T07:53:24.854Z,52.01
2017-08-23T07:54:24.836Z,52.21
2017-08-23T07:55:24.813Z,52.01
2017-08-23T07:56:24.792Z,51.82
2017-08-23T07:57:24.770Z,51.82
2017-08-23T07:58:24.747Z,51.92
2017-08-23T07:59:24.724Z,52.01
2017-08-23T08:00:24.708Z,51.92
2017-08-23T08:01:24.687Z,51.73
2017-08-23T08:02:24.661Z,51.92
2017-08-23T08:03:24.643Z,51.92
2017-08-23T08:04:24.621Z,52.01
2017-08-23T08:05:24.597Z,52.01
2017-08-23T08:06:24.578Z,51.92
2017-08-23T08:07:24.579Z,51.82
2017-08-23T08:08:24.536Z,52.01
2017-08-23T08:09:24.513Z,51.82
2017-08-23T08:10:24.488Z,52.11
2017-08-23T08:11:24.465Z,52.21
2017-08-23T08:12:24.447Z,51.92
2017-08-23T08:13:24.425Z,52.11
2017-08-23T08:14:24.405Z,52.21
2017-08-23T08:15:24.385Z,52.50
2017-08-23T08:16:24.364Z,52.50
2017-08-23T08:17:24.342Z,52.50
2017-08-23T08:18:24.320Z,52.40
2017-08-23T08:19:24.296Z,52.40
2017-08-23T08:20:24.279Z,52.11
2017-08-23T08:21:24.257Z,52.11
2017-08-23T08:22:24.235Z,52.11
2017-08-23T08:23:24.214Z,52.21
2017-08-23T08:24:24.192Z,52.40
2017-08-23T08:25:24.171Z,52.31
2017-08-23T08:26:24.149Z,52.40
2017-08-23T08:27:24.124Z,52.40
2017-08-23T08:28:24.113Z,52.01
2017-08-23T08:29:24.084Z,52.11
2017-08-23T08:30:24.060Z,52.31
2017-08-23T08:31:24.039Z,52.31
2017-08-23T08:32:24.021Z,52.31
2017-08-23T08:33:23.998Z,51.92
2017-08-23T08:34:23.977Z,52.31
2017-08-23T08:35:23.954Z,52.21
2017-08-23T08:36:23.934Z,52.50
2017-08-23T08:37:23.909Z,52.59
2017-08-23T08:38:23.887Z,52.40
2017-08-23T08:39:23.871Z,52.50
2017-08-23T08:40:23.850Z,52.40
2017-08-23T08:41:23.827Z,52.11
2017-08-23T08:42:23.805Z,52.40
2017-08-23T08:43:23.781Z,52.11
2017-08-23T08:44:23.760Z,52.31
2017-08-23T08:45:23.740Z,52.40
2017-08-23T08:46:23.717Z,52.31
2017-08-23T08:47:23.699Z,52.31
2017-08-23T08:48:23.675Z,52.31
2017-08-23T08:49:23.657Z,52.21
2017-08-23T08:50:23.631Z,52.50
2017-08-23T08:51:23.614Z,52.40
2017-08-23T08:52:23.593Z,52.50
2017-08-23T08:53:23.569Z,52.11
2017-08-23T08:54:23.545Z,52.11
2017-08-23T08:55:23.530Z,52.31
2017-08-23T08:56:23.503Z,52.50
2017-08-23T08:57:23.481Z,52.21
2017-08-23T08:58:23.461Z,52.40
2017-08-23T08:59:23.442Z,52.40
2017-08-23T09:00:23.417Z,52.79
2017-08-23T09:01:23.397Z,52.31
2017-08-23T09:02:23.374Z,52.11
2017-08-23T09:03:23.355Z,52.40
2017-08-23T09:04:23.331Z,52.40
2017-08-23T09:05:23.313Z,52.59
2017-08-23T09:06:23.293Z,52.50
2017-08-23T09:07:23.271Z,52.40
2017-08-23T09:08:23.250Z,52.01
2017-08-23T09:09:23.226Z,52.50
2017-08-23T09:10:23.204Z,52.40
2017-08-23T09:11:23.180Z,52.40
2017-08-23T09:12:23.162Z,52.01
2017-08-23T09:13:23.145Z,52.40
2017-08-23T09:14:23.116Z,52.59
2017-08-23T09:15:23.097Z,52.50
2017-08-23T09:16:23.075Z,52.40
2017-08-23T09:17:23.057Z,52.31
2017-08-23T09:18:23.032Z,52.40
2017-08-23T09:19:23.012Z,52.40
2017-08-23T09:20:22.991Z,52.79
2017-08-23T09:21:22.968Z,52.21
2017-08-23T09:22:22.945Z,52.21
2017-08-23T09:23:22.924Z,52.40
2017-08-23T09:24:22.905Z,52.50
2017-08-23T09:25:22.886Z,52.50
2017-08-23T09:26:22.864Z,52.40
2017-08-23T09:27:22.841Z,52.50
2017-08-23T09:28:22.820Z,52.21
2017-08-23T09:29:22.800Z,52.11
2017-08-23T09:30:22.776Z,52.01
2017-08-23T09:31:22.761Z,52.21
2017-08-23T09:32:22.736Z,52.69
2017-08-23T09:33:22.711Z,52.31
2017-08-23T09:34:22.693Z,52.31
2017-08-23T09:35:22.673Z,52.31
2017-08-23T09:36:22.646Z,52.40
2017-08-23T09:37:22.627Z,52.01
2017-08-23T09:38:22.604Z,52.01
2017-08-23T09:39:22.587Z,52.31
2017-08-23T09:40:22.562Z,52.21
2017-08-23T09:41:22.540Z,52.11
2017-08-23T09:42:22.518Z,52.11
2017-08-23T09:43:22.497Z,52.01
2017-08-23T09:44:22.478Z,52.21
2017-08-23T09:45:22.459Z,52.11
2017-08-23T09:46:22.435Z,52.11
2017-08-23T09:47:22.414Z,52.21
2017-08-23T09:48:22.391Z,52.01
2017-08-23T09:49:22.373Z,52.01
2017-08-23T09:50:22.351Z,52.21
2017-08-23T09:51:22.327Z,52.40
2017-08-23T09:52:22.310Z,52.59
2017-08-23T09:53:22.287Z,52.40
2017-08-23T09:54:22.263Z,52.40
2017-08-23T09:55:22.246Z,52.40
2017-08-23T09:56:22.225Z,52.59
2017-08-23T09:57:22.201Z,52.50
2017-08-23T09:58:22.177Z,52.59
2017-08-23T09:59:22.159Z,52.50
2017-08-23T10:00:22.156Z,52.50
2017-08-23T10:01:22.114Z,52.50
2017-08-23T10:02:22.092Z,52.59
2017-08-23T10:03:22.075Z,52.31
2017-08-23T10:04:22.056Z,52.89
2017-08-23T10:05:22.030Z,52.31
2017-08-23T10:06:22.009Z,52.69
2017-08-23T10:07:21.985Z,52.50
2017-08-23T10:08:21.964Z,52.69
2017-08-23T10:09:21.949Z,52.50
2017-08-23T10:10:21.926Z,52.89
2017-08-23T10:11:21.901Z,52.59
2017-08-23T10:12:21.884Z,52.50
2017-08-23T10:13:21.861Z,52.69
2017-08-23T10:14:21.836Z,52.59
2017-08-23T10:15:21.817Z,52.40
2017-08-23T10:16:21.794Z,52.59
2017-08-23T10:17:21.778Z,52.69
2017-08-23T10:18:21.750Z,53.08
2017-08-23T10:19:21.733Z,52.59
2017-08-23T10:20:21.710Z,52.69
2017-08-23T10:21:21.691Z,52.89
2017-08-23T10:22:21.669Z,52.59
2017-08-23T10:23:21.648Z,52.89
2017-08-23T10:24:21.624Z,52.69
2017-08-23T10:25:21.604Z,52.59
2017-08-23T10:26:21.583Z,52.89
2017-08-23T10:27:21.564Z,52.59
2017-08-23T10:28:21.537Z,52.50
2017-08-23T10:29:21.520Z,52.79
2017-08-23T10:30:21.506Z,52.79
2017-08-23T10:31:21.474Z,52.40
2017-08-23T10:32:21.458Z,52.40
2017-08-23T10:33:21.435Z,52.50
2017-08-23T10:34:21.415Z,52.50
2017-08-23T10:35:21.394Z,52.59
2017-08-23T10:36:21.374Z,52.79
2017-08-23T10:37:21.347Z,52.59
2017-08-23T10:38:21.330Z,52.69
2017-08-23T10:39:21.307Z,52.69
2017-08-23T10:40:21.283Z,52.98
2017-08-23T10:41:21.262Z,52.79
2017-08-23T10:42:21.244Z,52.59
2017-08-23T10:43:21.222Z,52.69
2017-08-23T10:44:21.203Z,52.59
2017-08-23T10:45:21.181Z,53.08
2017-08-23T10:46:21.157Z,52.89
2017-08-23T10:47:21.136Z,52.69
2017-08-23T10:48:21.114Z,52.69
2017-08-23T10:49:21.094Z,52.79
2017-08-23T10:50:21.070Z,52.89
2017-08-23T10:51:21.062Z,52.98
2017-08-23T10:52:21.032Z,52.98
2017-08-23T10:53:21.006Z,53.08
2017-08-23T10:54:20.987Z,52.98
2017-08-23T10:55:20.964Z,52.89
2017-08-23T10:56:20.945Z,52.89
2017-08-23T10:57:20.928Z,52.89
2017-08-23T10:58:20.898Z,52.89
2017-08-23T10:59:20.880Z,52.89
2017-08-23T11:00:20.862Z,52.59
2017-08-23T11:01:20.837Z,52.69
2017-08-23T11:02:20.816Z,52.79
2017-08-23T11:03:20.799Z,52.89
2017-08-23T11:04:20.779Z,52.79
2017-08-23T11:05:20.752Z,52.69
2017-08-23T11:06:20.730Z,52.79
2017-08-23T11:07:20.709Z,53.08
2017-08-23T11:08:20.687Z,52.98
2017-08-23T11:09:20.668Z,53.08
2017-08-23T11:10:20.646Z,52.98
2017-08-23T11:11:20.633Z,52.98
2017-08-23T11:12:20.603Z,53.27
2017-08-23T11:13:20.580Z,52.98
2017-08-23T11:14:20.560Z,53.56
2017-08-23T11:15:20.540Z,52.89
2017-08-23T11:16:20.517Z,52.98
2017-08-23T11:17:20.496Z,52.98
2017-08-23T11:18:20.472Z,53.27
2017-08-23T11:19:20.451Z,53.08
2017-08-23T11:20:20.431Z,52.89
2017-08-23T11:21:20.409Z,53.27
2017-08-23T11:22:20.392Z,53.27
2017-08-23T11:23:20.366Z,53.56
2017-08-23T11:24:20.347Z,52.89
2017-08-23T11:25:20.325Z,53.17
2017-08-23T11:26:20.305Z,52.79
2017-08-23T11:27:20.283Z,53.08
2017-08-23T11:28:20.262Z,52.98
2017-08-23T11:29:20.241Z,52.98
2017-08-23T11:30:20.218Z,53.08
2017-08-23T11:31:20.194Z,52.89
2017-08-23T11:32:20.174Z,53.08
2017-08-23T11:33:20.157Z,52.98
2017-08-23T11:34:20.135Z,53.27
2017-08-23T11:35:20.112Z,52.98
2017-08-23T11:36:20.090Z,53.17
2017-08-23T11:37:20.067Z,53.27
2017-08-23T11:38:20.049Z,53.27
2017-08-23T11:39:20.025Z,52.98
2017-08-23T11:40:20.003Z,53.17
2017-08-23T11:41:19.982Z,53.08
2017-08-23T11:42:19.964Z,53.27
2017-08-23T11:43:19.940Z,53.27
2017-08-23T11:44:19.919Z,53.66
2017-08-23T11:45:19.901Z,53.75
2017-08-23T11:46:19.881Z,53.66
2017-08-23T11:47:19.857Z,53.47
2017-08-23T11:48:19.831Z,53.66
2017-08-23T11:49:19.812Z,53.08
2017-08-23T11:50:20.014Z,53.08
2017-08-23T11:51:19.991Z,52.69
2017-08-23T11:52:19.748Z,53.08
2017-08-23T11:53:19.726Z,53.08
2017-08-23T11:54:19.708Z,53.11
2017-08-23T11:55:19.683Z,52.91
2017-08-23T11:56:19.664Z,52.91
2017-08-23T11:57:19.657Z,53.01
2017-08-23T11:58:19.621Z,53.39
2017-08-23T11:59:19.616Z,53.59
2017-08-23T12:00:19.572Z,53.59
2017-08-23T12:01:19.552Z,53.20
2017-08-23T12:02:19.584Z,53.49
2017-08-23T12:03:19.512Z,53.37
2017-08-23T12:04:19.489Z,53.49
2017-08-23T12:05:19.469Z,53.47
2017-08-23T12:06:19.452Z,53.69
2017-08-23T12:07:19.422Z,53.20
2017-08-23T12:08:19.405Z,53.59
2017-08-23T12:09:19.380Z,53.59
2017-08-23T12:10:19.357Z,53.01
2017-08-23T12:11:19.337Z,53.88
2017-08-23T12:12:19.315Z,53.56
2017-08-23T12:13:19.296Z,53.39
2017-08-23T12:14:19.277Z,53.59
2017-08-23T12:15:19.252Z,53.97
2017-08-23T12:16:19.235Z,53.88
2017-08-23T12:17:19.214Z,53.78
2017-08-23T12:18:19.186Z,53.59
2017-08-23T12:19:19.165Z,54.27
2017-08-23T12:20:19.149Z,54.94
2017-08-23T12:21:19.124Z,54.84
2017-08-23T12:22:19.102Z,54.46
2017-08-23T12:23:19.081Z,54.27
2017-08-23T12:24:19.061Z,53.78
2017-08-23T12:25:19.039Z,53.78
2017-08-23T12:26:19.017Z,54.65
2017-08-23T12:27:18.997Z,54.84
2017-08-23T12:28:18.974Z,55.13
2017-08-23T12:29:18.953Z,55.90
2017-08-23T12:30:18.933Z,55.23
2017-08-23T12:31:18.909Z,55.23
2017-08-23T12:32:18.889Z,54.75
2017-08-23T12:33:18.872Z,55.04
2017-08-23T12:34:18.847Z,55.13
2017-08-23T12:35:18.829Z,55.13
2017-08-23T12:36:18.807Z,56.20
2017-08-23T12:37:18.786Z,54.94
2017-08-23T12:38:18.762Z,55.13
2017-08-23T12:39:18.743Z,55.23
2017-08-23T12:40:18.718Z,54.84
2017-08-23T12:41:18.701Z,54.94
2017-08-23T12:42:18.679Z,55.13
2017-08-23T12:43:18.655Z,55.04
2017-08-23T12:44:18.637Z,55.04
2017-08-23T12:45:18.617Z,55.04
2017-08-23T12:46:18.594Z,54.84
2017-08-23T12:47:18.573Z,54.84
2017-08-23T12:48:18.550Z,54.94
2017-08-23T12:49:18.527Z,54.65
2017-08-23T12:50:18.510Z,54.84
2017-08-23T12:51:18.484Z,54.84
2017-08-23T12:52:18.469Z,54.84